Sawpit, Colorado
Current Conditions -  °F | °C
As of 5:35 PM on Tuesday 25 Nov 2014 (Local Time) from KTEX Reporting Station
Overcast Overcast  
Wind Chill: 27°   Ceiling: 3200
Heat Index: 27°   Visibility: 10mi
Dew Point: 18°   Wind: 3mph
Humidity: 68%   Direction: 190°S
Pressure: 30.36"   Gusts: NA
Location:  37.9189°N, 107.878°W
Report Text: KTEX 260035Z AUTO 19003KT 10SM OVC032 M03/M08 A3036 RMK AO2 T10271078
Loading
Personal Weather Stations






























Interactive Weather Map New forecast layout! Learn more

10-Day Weather Forecast

Advertisements
Track Severe Weather on mobile